createdAt,value
2014-10-16T00:00:58.099Z,17.14
2014-10-16T00:02:02.790Z,17.23
2014-10-16T00:03:07.495Z,17.31
2014-10-16T00:04:12.199Z,17.52
2014-10-16T00:05:16.890Z,17.34
2014-10-16T00:06:21.595Z,17.24
2014-10-16T00:07:26.299Z,16.98
2014-10-16T00:08:30.989Z,16.97
2014-10-16T00:09:35.695Z,16.91
2014-10-16T00:10:40.384Z,17.04
2014-10-16T00:11:45.089Z,17.18
2014-10-16T00:12:49.779Z,17.26
2014-10-16T00:13:54.484Z,17.18
2014-10-16T00:14:59.173Z,17.04
2014-10-16T00:16:03.863Z,17.02
2014-10-16T00:17:08.568Z,16.98
2014-10-16T00:18:13.257Z,17
2014-10-16T00:19:17.948Z,17.18
2014-10-16T00:20:22.652Z,17.28
2014-10-16T00:21:27.357Z,17.36
2014-10-16T00:22:32.048Z,17.29
2014-10-16T00:23:36.752Z,17.26
2014-10-16T00:24:41.441Z,17.06
2014-10-16T00:25:46.147Z,16.93
2014-10-16T00:26:51.133Z,16.86
2014-10-16T00:27:55.839Z,16.92
2014-10-16T00:29:00.528Z,16.78
2014-10-16T00:30:05.234Z,16.65
2014-10-16T00:31:09.924Z,16.74
2014-10-16T00:32:14.909Z,16.83
2014-10-16T00:33:19.615Z,16.82
2014-10-16T00:34:24.305Z,16.72
2014-10-16T00:35:29.307Z,16.7
2014-10-16T00:36:33.997Z,16.79
2014-10-16T00:37:38.702Z,16.82
2014-10-16T00:38:43.390Z,16.82
2014-10-16T00:39:48.095Z,16.91
2014-10-16T00:40:52.786Z,16.85
2014-10-16T00:41:57.491Z,16.77
2014-10-16T00:43:02.180Z,16.62
2014-10-16T00:44:06.886Z,16.61
2014-10-16T00:45:11.576Z,16.74
2014-10-16T00:46:16.280Z,16.73
2014-10-16T00:47:20.970Z,16.6
2014-10-16T00:48:25.659Z,16.6
2014-10-16T00:49:30.364Z,16.58
2014-10-16T00:50:35.055Z,16.56
2014-10-16T00:51:39.760Z,16.56
2014-10-16T00:52:44.465Z,16.55
2014-10-16T00:53:49.451Z,16.56
2014-10-16T00:54:54.453Z,16.72
2014-10-16T00:55:59.143Z,16.75
2014-10-16T00:57:04.145Z,16.75
2014-10-16T00:58:08.850Z,16.76
2014-10-16T00:59:13.540Z,16.62
2014-10-16T01:00:18.246Z,16.61
2014-10-16T01:01:22.934Z,16.59
2014-10-16T01:02:27.484Z,16.66
2014-10-16T01:03:32.469Z,16.65
2014-10-16T01:04:37.175Z,16.85
2014-10-16T01:05:41.881Z,16.65
2014-10-16T01:06:46.569Z,16.9
2014-10-16T01:07:51.275Z,16.81
2014-10-16T01:08:55.980Z,16.84
2014-10-16T01:11:37.048Z,17
2014-10-16T01:12:41.753Z,17.04
2014-10-16T01:13:46.739Z,16.98
2014-10-16T01:14:51.741Z,16.66
2014-10-16T01:15:56.447Z,16.69
2014-10-16T01:17:01.450Z,16.76
2014-10-16T01:18:06.169Z,16.86
2014-10-16T01:19:11.171Z,16.8
2014-10-16T01:20:15.876Z,16.92
2014-10-16T01:21:20.879Z,16.95
2014-10-16T01:22:25.866Z,16.78
2014-10-16T01:23:30.571Z,16.68
2014-10-16T01:24:35.276Z,16.72
2014-10-16T01:25:39.981Z,16.74
2014-10-16T01:26:44.686Z,16.66
2014-10-16T01:27:49.391Z,16.68
2014-10-16T01:28:54.378Z,16.64
2014-10-16T01:29:59.083Z,16.92
2014-10-16T01:31:03.805Z,16.9
2014-10-16T01:32:08.791Z,16.9
2014-10-16T01:33:13.495Z,16.89
2014-10-16T01:34:18.482Z,16.96
2014-10-16T01:35:23.188Z,17.09
2014-10-16T01:36:27.876Z,17.01
2014-10-16T01:37:32.581Z,17.17
2014-10-16T01:38:37.287Z,16.98
2014-10-16T01:39:41.993Z,16.92
2014-10-16T01:40:46.713Z,16.96
2014-10-16T01:41:51.403Z,16.93
2014-10-16T01:42:56.108Z,16.94
2014-10-16T01:44:00.813Z,16.9
2014-10-16T01:45:05.518Z,16.88
2014-10-16T01:46:10.505Z,16.89
2014-10-16T01:47:15.211Z,16.79
2014-10-16T01:48:19.915Z,16.77
2014-10-16T01:49:24.901Z,16.81
2014-10-16T01:50:29.607Z,16.77
2014-10-16T01:51:34.312Z,16.84
2014-10-16T01:52:39.018Z,16.83
2014-10-16T01:53:43.723Z,16.66
2014-10-16T01:54:48.428Z,16.64
2014-10-16T01:55:53.117Z,16.81
2014-10-16T01:56:58.119Z,16.87
2014-10-16T01:58:02.809Z,16.88
2014-10-16T01:59:07.514Z,16.87
2014-10-16T02:00:12.219Z,16.82
2014-10-16T02:01:16.909Z,16.56
2014-10-16T02:02:21.896Z,16.61
2014-10-16T02:03:26.600Z,16.62
2014-10-16T02:04:31.290Z,16.72
2014-10-16T02:05:36.277Z,16.75
2014-10-16T02:06:40.982Z,16.76
2014-10-16T02:07:45.672Z,16.74
2014-10-16T02:08:50.377Z,16.74
2014-10-16T02:09:55.065Z,16.67
2014-10-16T02:10:59.756Z,16.62
2014-10-16T02:12:04.461Z,16.65
2014-10-16T02:13:09.150Z,16.72
2014-10-16T02:14:13.855Z,16.82
2014-10-16T02:15:18.561Z,16.91
2014-10-16T02:16:23.548Z,16.9
2014-10-16T02:17:28.236Z,16.78
2014-10-16T02:18:32.943Z,16.67
2014-10-16T02:19:37.632Z,16.79
2014-10-16T02:20:42.336Z,16.78
2014-10-16T02:21:47.324Z,16.76
2014-10-16T02:22:52.029Z,16.83
2014-10-16T02:23:56.717Z,16.91
2014-10-16T02:25:01.705Z,16.98
2014-10-16T02:26:06.394Z,16.82
2014-10-16T02:27:11.099Z,16.68
2014-10-16T02:28:15.789Z,16.62
2014-10-16T02:29:20.478Z,16.72
2014-10-16T02:30:25.183Z,17.1
2014-10-16T02:31:29.873Z,16.94
2014-10-16T02:32:34.579Z,16.75
2014-10-16T02:33:39.267Z,16.91
2014-10-16T02:34:43.269Z,16.8
2014-10-16T02:35:47.975Z,16.91
2014-10-16T02:36:52.681Z,16.93
2014-10-16T02:37:57.369Z,17.03
2014-10-16T02:39:02.075Z,17.04
2014-10-16T02:40:07.062Z,16.92
2014-10-16T02:41:12.048Z,16.82
2014-10-16T02:42:16.753Z,16.86
2014-10-16T02:43:21.443Z,16.75
2014-10-16T02:44:26.430Z,16.77
2014-10-16T02:45:31.431Z,16.67
2014-10-16T02:46:36.417Z,16.58
2014-10-16T02:47:41.124Z,16.68
2014-10-16T02:48:45.813Z,16.73
2014-10-16T02:49:50.798Z,16.75
2014-10-16T02:50:55.505Z,16.71
2014-10-16T02:52:00.194Z,16.63
2014-10-16T02:53:04.899Z,16.6
2014-10-16T02:54:09.589Z,16.56
2014-10-16T02:55:14.575Z,16.57
2014-10-16T02:56:19.280Z,16.59
2014-10-16T02:57:24.267Z,16.7
2014-10-16T02:58:28.956Z,16.44
2014-10-16T02:59:33.661Z,16.43
2014-10-16T03:00:38.351Z,16.56
2014-10-16T03:01:43.056Z,16.6
2014-10-16T03:02:48.042Z,16.56
2014-10-16T03:03:52.732Z,16.73
2014-10-16T03:04:57.421Z,16.79
2014-10-16T03:06:02.423Z,16.77
2014-10-16T03:07:07.114Z,16.68
2014-10-16T03:08:11.850Z,16.75
2014-10-16T03:09:16.852Z,16.59
2014-10-16T03:10:21.542Z,16.58
2014-10-16T03:11:26.231Z,16.7
2014-10-16T03:12:30.952Z,16.67
2014-10-16T03:13:35.938Z,16.68
2014-10-16T03:14:40.628Z,16.61
2014-10-16T03:15:45.333Z,16.67
2014-10-16T03:16:50.039Z,16.52
2014-10-16T03:17:54.744Z,16.78
2014-10-16T03:18:59.448Z,16.82
2014-10-16T03:20:04.139Z,16.91
2014-10-16T03:21:09.141Z,16.82
2014-10-16T03:22:13.829Z,16.64
2014-10-16T03:23:18.535Z,16.74
2014-10-16T03:24:23.225Z,16.75
2014-10-16T03:25:27.930Z,16.73
2014-10-16T03:26:32.916Z,16.79
2014-10-16T03:27:37.621Z,16.86
2014-10-16T03:28:42.327Z,16.9
2014-10-16T03:29:47.017Z,16.94
2014-10-16T03:30:51.721Z,16.94
2014-10-16T03:31:56.426Z,16.84
2014-10-16T03:33:01.428Z,16.9
2014-10-16T03:34:06.119Z,16.7
2014-10-16T03:35:10.824Z,16.69
2014-10-16T03:36:15.529Z,16.68
2014-10-16T03:37:20.249Z,16.73
2014-10-16T03:38:25.235Z,16.52
2014-10-16T03:39:29.940Z,16.63
2014-10-16T03:40:34.943Z,16.8
2014-10-16T03:41:39.648Z,16.9
2014-10-16T03:42:44.354Z,16.76
2014-10-16T03:43:49.060Z,16.6
2014-10-16T03:44:53.748Z,16.72
2014-10-16T03:45:58.453Z,16.67
2014-10-16T03:47:03.158Z,16.6
2014-10-16T03:48:07.865Z,16.74
2014-10-16T03:49:12.554Z,16.88
2014-10-16T03:50:17.258Z,16.92
2014-10-16T03:51:21.963Z,16.76
2014-10-16T03:52:26.668Z,16.79
2014-10-16T03:53:31.406Z,16.78
2014-10-16T03:54:36.094Z,16.8
2014-10-16T03:55:40.800Z,16.94
2014-10-16T03:56:45.506Z,17
2014-10-16T03:57:50.195Z,16.88
2014-10-16T03:58:54.900Z,17.03
2014-10-16T03:59:59.902Z,17.03
2014-10-16T04:01:04.889Z,17.07
2014-10-16T04:02:09.892Z,17.16
2014-10-16T04:03:14.581Z,17.06
2014-10-16T04:04:19.285Z,16.94
2014-10-16T04:05:24.287Z,16.94
2014-10-16T04:06:28.978Z,16.94
2014-10-16T04:07:33.980Z,16.84
2014-10-16T04:08:38.668Z,16.76
2014-10-16T04:09:43.687Z,16.75
2014-10-16T04:10:48.392Z,16.61
2014-10-16T04:11:53.378Z,16.62
2014-10-16T04:12:58.068Z,16.88
2014-10-16T04:14:02.773Z,17.01
2014-10-16T04:15:07.462Z,17.01
2014-10-16T04:16:12.168Z,17.04
2014-10-16T04:17:17.155Z,17.03
2014-10-16T04:18:21.843Z,17.08
2014-10-16T04:19:26.549Z,17.09
2014-10-16T04:20:31.239Z,17.13
2014-10-16T04:21:35.943Z,17.19
2014-10-16T04:22:40.648Z,17.06
2014-10-16T04:23:45.339Z,16.97
2014-10-16T04:24:50.044Z,17.23
2014-10-16T04:25:55.030Z,17.16
2014-10-16T04:26:59.735Z,17.18
2014-10-16T04:28:04.425Z,17.22
2014-10-16T04:29:09.147Z,17.02
2014-10-16T04:30:13.835Z,16.99
2014-10-16T04:31:18.540Z,17.14
2014-10-16T04:32:23.231Z,17.27
2014-10-16T04:33:27.936Z,17.22
2014-10-16T04:34:32.624Z,16.92
2014-10-16T04:35:37.331Z,17.04
2014-10-16T04:36:42.020Z,16.94
2014-10-16T04:37:46.724Z,16.98
2014-10-16T04:38:51.415Z,17.14
2014-10-16T04:39:56.120Z,17.14
2014-10-16T04:41:00.825Z,17.15
2014-10-16T04:42:05.514Z,17.05
2014-10-16T04:43:10.220Z,16.75
2014-10-16T04:44:14.910Z,16.71
2014-10-16T04:45:19.614Z,16.8
2014-10-16T04:46:24.304Z,16.91
2014-10-16T04:47:28.993Z,16.9
2014-10-16T04:48:33.698Z,16.95
2014-10-16T04:49:38.389Z,17.09
2014-10-16T04:50:43.390Z,17.06
2014-10-16T04:51:48.079Z,16.96
2014-10-16T04:52:52.785Z,16.89
2014-10-16T04:53:57.475Z,16.96
2014-10-16T04:55:02.477Z,17.04
2014-10-16T04:56:07.182Z,17.08
2014-10-16T04:57:11.872Z,17.03
2014-10-16T04:58:16.561Z,17.08
2014-10-16T04:59:21.266Z,17.05
2014-10-16T05:00:25.971Z,16.96
2014-10-16T05:01:30.661Z,17.1
2014-10-16T05:02:35.367Z,16.76
2014-10-16T05:03:40.071Z,16.76
2014-10-16T05:04:44.761Z,16.48
2014-10-16T05:05:48.778Z,16.7
2014-10-16T05:06:53.469Z,16.62
2014-10-16T05:07:58.455Z,16.74
2014-10-16T05:09:03.160Z,16.86
2014-10-16T05:10:07.850Z,16.87
2014-10-16T05:11:12.538Z,16.88
2014-10-16T05:12:17.244Z,16.94
2014-10-16T05:13:21.934Z,17.04
2014-10-16T05:14:26.639Z,16.82
2014-10-16T05:15:31.344Z,16.88
2014-10-16T05:16:36.034Z,16.9
2014-10-16T05:17:41.021Z,16.86
2014-10-16T05:18:46.006Z,16.74
2014-10-16T05:19:50.712Z,16.59
2014-10-16T05:20:55.402Z,16.56
2014-10-16T05:22:00.106Z,16.72
2014-10-16T05:23:04.794Z,16.8
2014-10-16T05:24:09.481Z,16.87
2014-10-16T05:25:14.183Z,16.66
2014-10-16T05:26:18.872Z,16.72
2014-10-16T05:27:23.575Z,16.43
2014-10-16T05:28:28.262Z,16.38
2014-10-16T05:29:32.965Z,16.33
2014-10-16T05:30:37.950Z,16.44
2014-10-16T05:31:42.653Z,16.58
2014-10-16T05:32:47.340Z,16.6
2014-10-16T05:33:52.044Z,16.6
2014-10-16T05:34:56.747Z,16.66
2014-10-16T05:36:01.433Z,16.54
2014-10-16T05:37:06.137Z,16.48
2014-10-16T05:38:10.825Z,16.4
2014-10-16T05:39:15.528Z,16.36
2014-10-16T05:40:20.215Z,16.42
2014-10-16T05:41:24.919Z,16.56
2014-10-16T05:42:29.606Z,16.61
2014-10-16T05:43:34.309Z,16.5
2014-10-16T05:44:38.997Z,16.6
2014-10-16T05:45:43.699Z,16.58
2014-10-16T05:46:48.387Z,16.51
2014-10-16T05:47:53.075Z,16.6
2014-10-16T05:48:57.778Z,16.55
2014-10-16T05:50:02.465Z,16.28
2014-10-16T05:51:07.169Z,16.33
2014-10-16T05:52:11.856Z,16.52
2014-10-16T05:53:16.840Z,16.48
2014-10-16T05:54:21.559Z,16.41
2014-10-16T05:55:26.544Z,16.55
2014-10-16T05:56:31.231Z,16.59
2014-10-16T05:57:35.933Z,16.54
2014-10-16T05:58:40.637Z,16.67
2014-10-16T05:59:45.325Z,16.89
2014-10-16T06:00:50.308Z,16.94
2014-10-16T06:01:55.309Z,16.86
2014-10-16T06:03:00.294Z,16.69
2014-10-16T06:04:04.997Z,16.74
2014-10-16T06:05:09.700Z,16.96
2014-10-16T06:06:14.403Z,16.86
2014-10-16T06:07:19.387Z,16.77
2014-10-16T06:08:24.090Z,16.79
2014-10-16T06:09:28.794Z,16.78
2014-10-16T06:10:32.794Z,16.95
2014-10-16T06:11:37.794Z,17.18
2014-10-16T06:12:42.497Z,17.71
2014-10-16T06:13:47.183Z,18.32
2014-10-16T06:14:52.183Z,19.35
2014-10-16T06:15:56.919Z,19.66
2014-10-16T06:17:01.622Z,18.7
2014-10-16T06:18:06.324Z,18.22
2014-10-16T06:19:11.028Z,17.74
2014-10-16T06:20:16.028Z,17.72
2014-10-16T06:21:20.731Z,17.74
2014-10-16T06:22:25.731Z,17.7
2014-10-16T06:23:30.449Z,17.47
2014-10-16T06:24:35.137Z,17.34
2014-10-16T06:25:39.856Z,17.19
2014-10-16T06:26:44.544Z,17.25
2014-10-16T06:27:49.544Z,17.33
2014-10-16T06:28:54.247Z,17.78
2014-10-16T06:29:59.231Z,18.03
2014-10-16T06:31:03.933Z,17.68
2014-10-16T06:32:08.637Z,17.55
2014-10-16T06:33:13.340Z,17.51
2014-10-16T06:34:18.044Z,17.44
2014-10-16T06:35:22.747Z,17.54
2014-10-16T06:36:27.449Z,17.46
2014-10-16T06:37:32.153Z,17.56
2014-10-16T06:38:36.840Z,17.55
2014-10-16T06:39:41.840Z,17.42
2014-10-16T06:40:46.544Z,17.37
2014-10-16T06:41:51.278Z,17.33
2014-10-16T06:42:55.981Z,17.28
2014-10-16T06:44:00.981Z,17.16
2014-10-16T06:45:05.683Z,17.11
2014-10-16T06:46:10.387Z,17.04
2014-10-16T06:47:15.090Z,17.06
2014-10-16T06:48:19.794Z,17.08
2014-10-16T06:49:24.778Z,17.08
2014-10-16T06:50:29.481Z,17.02
2014-10-16T06:51:34.183Z,16.96
2014-10-16T06:52:38.903Z,17.04
2014-10-16T06:53:43.606Z,17.13
2014-10-16T06:54:48.294Z,17.16
2014-10-16T06:55:52.981Z,16.9
2014-10-16T06:56:57.683Z,17.03
2014-10-16T06:58:02.372Z,17.05
2014-10-16T06:59:07.075Z,17.04
2014-10-16T07:00:11.778Z,17.09
2014-10-16T07:01:16.465Z,17.2
2014-10-16T07:02:21.153Z,17.29
2014-10-16T07:03:25.856Z,17.42
2014-10-16T07:04:30.559Z,17.19
2014-10-16T07:05:35.544Z,17.32
2014-10-16T07:06:40.231Z,17.38
2014-10-16T07:07:44.231Z,17.31
2014-10-16T07:08:48.933Z,17.26
2014-10-16T07:09:53.622Z,17.25
2014-10-16T07:10:58.622Z,17.16
2014-10-16T07:12:03.308Z,17.23
2014-10-16T07:13:08.012Z,17.35
2014-10-16T07:14:12.700Z,17.38
2014-10-16T07:15:17.403Z,17.5
2014-10-16T07:16:22.090Z,17.57
2014-10-16T07:17:27.075Z,17.82
2014-10-16T07:18:31.778Z,17.66
2014-10-16T07:19:36.465Z,17.39
2014-10-16T07:20:41.169Z,17.31
2014-10-16T07:21:45.872Z,17.25
2014-10-16T07:22:50.856Z,17.26
2014-10-16T07:23:55.558Z,17.4
2014-10-16T07:25:00.247Z,17.47
2014-10-16T07:26:05.247Z,17.43
2014-10-16T07:27:09.933Z,17.33
2014-10-16T07:28:14.622Z,17.46
2014-10-16T07:29:19.605Z,17.66
2014-10-16T07:30:24.886Z,17.55
2014-10-16T07:31:29.590Z,17.54
2014-10-16T07:32:34.575Z,17.53
2014-10-16T07:33:39.294Z,17.43
2014-10-16T07:34:43.997Z,17.46
2014-10-16T07:35:48.981Z,17.51
2014-10-16T07:36:53.669Z,17.74
2014-10-16T07:37:58.669Z,17.76
2014-10-16T07:39:03.356Z,17.76
2014-10-16T07:40:08.059Z,17.64
2014-10-16T07:41:12.762Z,17.43
2014-10-16T07:42:17.465Z,17.59
2014-10-16T07:43:22.169Z,17.43
2014-10-16T07:44:26.856Z,17.36
2014-10-16T07:45:31.558Z,17.55
2014-10-16T07:46:36.559Z,17.7
2014-10-16T07:47:41.247Z,17.45
2014-10-16T07:48:45.933Z,17.47
2014-10-16T07:49:50.934Z,17.76
2014-10-16T07:50:55.622Z,17.35
2014-10-16T07:52:00.324Z,17.42
2014-10-16T07:53:05.012Z,17.44
2014-10-16T07:54:09.997Z,17.38
2014-10-16T07:55:14.699Z,17.6
2014-10-16T07:56:19.387Z,17.6
2014-10-16T07:57:24.372Z,17.53
2014-10-16T07:58:29.058Z,17.38
2014-10-16T07:59:34.059Z,17.5
2014-10-16T08:00:38.747Z,17.36
2014-10-16T08:01:43.731Z,17.53
2014-10-16T08:02:48.419Z,17.37
2014-10-16T08:03:53.122Z,17.36
2014-10-16T08:04:57.808Z,17.54
2014-10-16T08:06:02.512Z,17.63
2014-10-16T08:07:07.200Z,17.86
2014-10-16T08:08:11.903Z,18.02
2014-10-16T08:09:16.606Z,17.91
2014-10-16T08:10:21.309Z,17.32
2014-10-16T08:11:26.012Z,17.76
2014-10-16T08:12:30.715Z,17.63
2014-10-16T08:13:35.419Z,17.4
2014-10-16T08:14:40.402Z,17.3
2014-10-16T08:15:45.106Z,17.3
2014-10-16T08:16:49.809Z,16.93
2014-10-16T08:17:54.512Z,17.07
2014-10-16T08:18:59.215Z,17.36
2014-10-16T08:20:03.919Z,17.49
2014-10-16T08:21:08.622Z,17.54
2014-10-16T08:22:13.324Z,17.72
2014-10-16T08:23:18.028Z,17.68
2014-10-16T08:24:22.731Z,17.8
2014-10-16T08:25:26.747Z,17.72
2014-10-16T08:26:31.433Z,17.58
2014-10-16T08:27:36.137Z,17.06
2014-10-16T08:28:40.839Z,17.11
2014-10-16T08:29:45.528Z,17.16
2014-10-16T08:30:50.231Z,17.34
2014-10-16T08:31:54.934Z,17.54
2014-10-16T08:32:59.622Z,17.56
2014-10-16T08:34:04.324Z,17.6
2014-10-16T08:35:09.309Z,17.6
2014-10-16T08:36:13.997Z,17.46
2014-10-16T08:37:18.981Z,17.1
2014-10-16T08:38:23.684Z,17.08
2014-10-16T08:39:28.669Z,17.29
2014-10-16T08:40:33.356Z,17.4
